createdAt,value
2023-04-17T00:00:16.505Z,5.63
2023-04-17T00:02:45.238Z,6.20
2023-04-17T00:05:13.789Z,6.70
2023-04-17T00:07:43.988Z,8.00
2023-04-17T00:10:12.868Z,5.90
2023-04-17T00:12:41.316Z,6.77
2023-04-17T00:15:10.382Z,5.80
2023-04-17T00:17:38.847Z,6.43
2023-04-17T00:20:10.167Z,6.80
2023-04-17T00:22:38.697Z,7.73
2023-04-17T00:25:10.517Z,8.33
2023-04-17T00:27:39.155Z,10.53
2023-04-17T00:30:08.950Z,8.47
2023-04-17T00:32:37.458Z,7.93
2023-04-17T00:35:06.351Z,8.43
2023-04-17T00:37:35.749Z,8.63
2023-04-17T00:40:04.598Z,9.20
2023-04-17T00:42:34.074Z,8.83
2023-04-17T00:45:04.330Z,9.07
2023-04-17T00:47:33.548Z,8.80
2023-04-17T00:50:02.289Z,9.80
2023-04-17T00:52:31.373Z,11.00
2023-04-17T00:55:00.495Z,12.50
2023-04-17T00:57:29.045Z,12.47
2023-04-17T00:59:59.339Z,10.07
2023-04-17T01:02:28.018Z,9.77
2023-04-17T01:04:56.706Z,8.70
2023-04-17T01:07:25.550Z,7.20
2023-04-17T01:09:54.792Z,8.43
2023-04-17T01:12:25.011Z,8.47
2023-04-17T01:14:53.959Z,10.70
2023-04-17T01:17:26.268Z,11.50
2023-04-17T01:19:55.639Z,9.87
2023-04-17T01:22:24.126Z,10.30
2023-04-17T01:24:54.061Z,11.73
2023-04-17T01:27:22.981Z,11.53
2023-04-17T01:29:51.678Z,13.23
2023-04-17T01:32:20.366Z,13.23
2023-04-17T01:34:48.740Z,11.77
2023-04-17T01:37:17.356Z,12.07
2023-04-17T01:39:45.891Z,11.37
2023-04-17T01:42:15.573Z,10.67
2023-04-17T01:44:43.976Z,11.07
2023-04-17T01:47:12.718Z,10.77
2023-04-17T01:49:41.325Z,10.40
2023-04-17T01:52:09.746Z,9.83
2023-04-17T01:54:38.172Z,12.50
2023-04-17T01:57:06.892Z,11.90
2023-04-17T01:59:36.485Z,10.73
2023-04-17T02:02:05.158Z,13.37
2023-04-17T02:04:33.845Z,12.50
2023-04-17T02:07:02.724Z,11.93
2023-04-17T02:09:31.145Z,11.80
2023-04-17T02:11:59.563Z,13.53
2023-04-17T02:14:27.961Z,13.83
2023-04-17T02:16:57.592Z,15.20
2023-04-17T02:19:26.149Z,13.37
2023-04-17T02:21:54.552Z,12.67
2023-04-17T02:24:22.875Z,12.13
2023-04-17T02:26:53.045Z,14.87
2023-04-17T02:29:21.467Z,15.03
2023-04-17T02:31:50.084Z,16.30
2023-04-17T02:34:19.734Z,12.23
2023-04-17T02:36:48.476Z,11.33
2023-04-17T02:39:17.183Z,11.90
2023-04-17T02:41:45.567Z,11.70
2023-04-17T02:44:13.993Z,10.77
2023-04-17T02:46:42.691Z,10.97
2023-04-17T02:49:11.460Z,13.30
2023-04-17T02:51:41.297Z,13.03
2023-04-17T02:54:09.714Z,15.13
2023-04-17T02:56:38.372Z,16.10
2023-04-17T02:59:06.712Z,15.43
2023-04-17T03:01:37.692Z,14.23
2023-04-17T03:04:06.584Z,12.73
2023-04-17T03:06:35.095Z,12.03
2023-04-17T03:09:05.180Z,13.43
2023-04-17T03:11:33.730Z,14.37
2023-04-17T03:14:02.481Z,15.83
2023-04-17T03:16:31.203Z,16.10
2023-04-17T03:18:59.989Z,17.60
2023-04-17T03:21:28.546Z,17.07
2023-04-17T03:23:57.008Z,16.90
2023-04-17T03:26:27.088Z,15.93
2023-04-17T03:28:55.627Z,17.03
2023-04-17T03:31:25.819Z,18.20
2023-04-17T03:33:54.357Z,21.57
2023-04-17T03:36:22.736Z,20.57
2023-04-17T03:38:51.299Z,19.60
2023-04-17T03:41:19.713Z,19.10
2023-04-17T03:43:49.366Z,18.03
2023-04-17T03:46:18.427Z,20.50
2023-04-17T03:48:47.009Z,21.10
2023-04-17T03:51:16.092Z,21.23
2023-04-17T03:53:44.541Z,22.53
2023-04-17T03:56:13.194Z,21.83
2023-04-17T03:58:41.658Z,22.90
2023-04-17T04:01:12.607Z,24.57
2023-04-17T04:03:41.450Z,26.33
2023-04-17T04:06:10.295Z,26.03
2023-04-17T04:08:38.729Z,25.43
2023-04-17T04:11:07.320Z,27.13
2023-04-17T04:13:35.791Z,29.10
2023-04-17T04:16:04.480Z,29.47
2023-04-17T04:18:34.135Z,29.57
2023-04-17T04:21:02.585Z,31.27
2023-04-17T04:23:31.013Z,31.17
2023-04-17T04:26:01.869Z,29.27
2023-04-17T04:28:30.424Z,31.20
2023-04-17T04:30:59.022Z,30.97
2023-04-17T04:33:29.577Z,30.33
2023-04-17T04:36:01.202Z,28.63
2023-04-17T04:38:33.069Z,31.90
2023-04-17T04:41:06.467Z,31.67
2023-04-17T04:43:35.632Z,32.93
2023-04-17T04:46:04.435Z,32.23
2023-04-17T04:48:32.900Z,32.23
2023-04-17T04:51:02.549Z,34.13
2023-04-17T04:53:31.436Z,33.57
2023-04-17T04:55:59.830Z,34.27
2023-04-17T04:58:29.767Z,34.10
2023-04-17T05:00:58.251Z,36.10
2023-04-17T05:03:27.074Z,36.93
2023-04-17T05:05:55.753Z,37.40
2023-04-17T05:08:25.716Z,36.03
2023-04-17T05:10:54.238Z,36.67
2023-04-17T05:13:22.746Z,35.73
2023-04-17T05:15:51.643Z,36.40
2023-04-17T05:18:20.466Z,38.93
2023-04-17T05:20:49.021Z,38.70
2023-04-17T05:23:17.547Z,37.23
2023-04-17T05:25:47.415Z,41.50
2023-04-17T05:28:17.190Z,42.27
2023-04-17T05:30:46.423Z,37.57
2023-04-17T05:33:14.893Z,39.53
2023-04-17T05:35:43.307Z,38.33
2023-04-17T05:38:11.542Z,37.83
2023-04-17T05:40:40.275Z,38.67
2023-04-17T05:43:11.281Z,39.13
2023-04-17T05:45:41.523Z,38.97
2023-04-17T05:48:10.519Z,39.43
2023-04-17T05:50:38.987Z,39.13
2023-04-17T05:53:07.946Z,37.27
2023-04-17T05:55:36.462Z,38.13
2023-04-17T05:58:20.361Z,38.13
2023-04-17T06:00:53.640Z,37.47
2023-04-17T06:03:22.231Z,39.50
2023-04-17T06:05:52.266Z,38.67
2023-04-17T06:08:20.813Z,39.83
2023-04-17T06:10:50.252Z,37.70
2023-04-17T06:13:18.783Z,38.17
2023-04-17T06:15:47.149Z,34.27
2023-04-17T06:18:17.683Z,35.90
2023-04-17T06:20:46.362Z,32.03
2023-04-17T06:23:14.797Z,33.87
2023-04-17T06:25:43.406Z,34.13
2023-04-17T06:28:12.112Z,34.87
2023-04-17T06:30:40.520Z,34.00
2023-04-17T06:33:09.181Z,32.43
2023-04-17T06:35:38.983Z,31.70
2023-04-17T06:38:07.617Z,30.20
2023-04-17T06:40:36.642Z,30.57
2023-04-17T06:43:05.072Z,30.70
2023-04-17T06:45:34.559Z,29.97
2023-04-17T06:48:03.329Z,28.13
2023-04-17T06:50:31.814Z,29.87
2023-04-17T06:53:01.643Z,31.43
2023-04-17T06:55:30.270Z,31.97
2023-04-17T06:57:58.815Z,31.23
2023-04-17T07:00:27.412Z,32.43
2023-04-17T07:02:56.126Z,34.53
2023-04-17T07:05:24.942Z,34.97
2023-04-17T07:07:53.582Z,35.53
2023-04-17T07:10:23.217Z,35.27
2023-04-17T07:12:51.771Z,33.50
2023-04-17T07:15:20.335Z,33.90
2023-04-17T07:17:48.988Z,35.17
2023-04-17T07:20:17.606Z,30.53
2023-04-17T07:22:45.855Z,31.17
2023-04-17T07:25:14.303Z,32.67
2023-04-17T07:27:44.694Z,33.73
2023-04-17T07:30:13.389Z,36.23
2023-04-17T07:32:41.889Z,32.70
2023-04-17T07:35:10.518Z,34.63
2023-04-17T07:37:39.049Z,36.03
2023-04-17T07:40:10.480Z,35.57
2023-04-17T07:42:38.942Z,33.80
2023-04-17T07:45:10.725Z,35.53
2023-04-17T07:47:39.330Z,35.00
2023-04-17T07:50:08.803Z,34.13
2023-04-17T07:52:37.232Z,35.10
2023-04-17T07:55:07.157Z,37.87
2023-04-17T07:57:35.774Z,34.63
2023-04-17T08:00:07.198Z,32.67
2023-04-17T08:02:37.042Z,32.13
2023-04-17T08:05:07.105Z,34.40
2023-04-17T08:07:36.180Z,34.73
2023-04-17T08:10:05.234Z,36.33
2023-04-17T08:12:34.106Z,36.20
2023-04-17T08:15:03.351Z,34.30
2023-04-17T08:17:32.180Z,34.67
2023-04-17T08:20:02.355Z,35.63
2023-04-17T08:22:30.728Z,34.23
2023-04-17T08:24:59.728Z,31.53
2023-04-17T08:27:28.370Z,33.30
2023-04-17T08:29:56.998Z,33.70
2023-04-17T08:32:25.404Z,34.83
2023-04-17T08:34:53.925Z,29.10
2023-04-17T08:37:23.884Z,32.97
2023-04-17T08:39:53.811Z,24.57
2023-04-17T08:42:22.882Z,29.63
2023-04-17T08:44:51.148Z,26.77
2023-04-17T08:47:20.205Z,30.10
2023-04-17T08:49:50.613Z,28.20
2023-04-17T08:52:19.195Z,29.87
2023-04-17T08:54:51.052Z,32.07
2023-04-17T08:57:19.823Z,33.53
2023-04-17T08:59:48.351Z,32.90
2023-04-17T09:02:17.050Z,33.33
2023-04-17T09:04:47.390Z,31.07
2023-04-17T09:07:16.739Z,33.93
2023-04-17T09:09:51.094Z,35.73
2023-04-17T09:12:20.125Z,35.50
2023-04-17T09:14:48.697Z,36.83
2023-04-17T09:17:18.424Z,37.70
2023-04-17T09:20:07.854Z,39.53
2023-04-17T09:22:37.155Z,38.17
2023-04-17T09:25:17.410Z,39.23
2023-04-17T09:27:46.635Z,36.37
2023-04-17T09:30:15.862Z,36.27
2023-04-17T09:32:44.428Z,34.43
2023-04-17T09:35:24.044Z,36.63
2023-04-17T09:37:53.829Z,37.77
2023-04-17T09:40:25.100Z,39.90
2023-04-17T09:42:58.480Z,37.87
2023-04-17T09:45:33.101Z,37.83
2023-04-17T09:48:01.663Z,36.80
2023-04-17T09:50:31.282Z,38.87
2023-04-17T09:53:00.033Z,36.47
2023-04-17T09:55:31.401Z,38.67
2023-04-17T09:58:03.221Z,36.00
2023-04-17T10:00:32.103Z,30.97
2023-04-17T10:03:01.009Z,30.87
2023-04-17T10:05:32.557Z,31.37
2023-04-17T10:08:01.746Z,32.43
2023-04-17T10:10:34.097Z,35.13
2023-04-17T10:13:04.322Z,32.07
2023-04-17T10:15:33.932Z,30.80
2023-04-17T10:18:20.084Z,31.67
2023-04-17T10:20:50.570Z,29.80
2023-04-17T10:23:32.622Z,30.27
2023-04-17T10:26:37.909Z,32.57
2023-04-17T10:29:06.489Z,33.33
2023-04-17T10:32:26.027Z,33.00
2023-04-17T10:34:55.165Z,32.50
2023-04-17T10:37:44.701Z,30.10
2023-04-17T10:40:20.813Z,30.13
2023-04-17T10:43:04.368Z,27.97
2023-04-17T10:45:55.729Z,30.27
2023-04-17T10:48:28.382Z,30.47
2023-04-17T10:50:57.388Z,33.70
2023-04-17T10:53:52.949Z,32.80
2023-04-17T10:56:27.642Z,32.67
2023-04-17T10:59:00.186Z,31.77
2023-04-17T11:01:31.740Z,29.70
2023-04-17T11:04:00.873Z,30.83
2023-04-17T11:06:31.616Z,32.33
2023-04-17T11:09:01.435Z,32.97
2023-04-17T11:11:43.663Z,34.07
2023-04-17T11:14:16.788Z,32.17
2023-04-17T11:16:46.666Z,33.47
2023-04-17T11:19:19.578Z,33.03
2023-04-17T11:21:49.880Z,29.87
2023-04-17T11:24:24.749Z,28.67
2023-04-17T11:26:57.969Z,31.30
2023-04-17T11:29:26.587Z,34.37
2023-04-17T11:31:56.384Z,31.40
2023-04-17T11:34:27.528Z,33.20
2023-04-17T11:36:57.792Z,32.53
2023-04-17T11:39:27.788Z,32.40
2023-04-17T11:41:58.091Z,33.73
2023-04-17T11:44:27.339Z,34.20
2023-04-17T11:46:58.336Z,32.13
2023-04-17T11:49:27.758Z,34.40
2023-04-17T11:51:58.782Z,35.03
2023-04-17T11:54:27.913Z,32.47
2023-04-17T11:57:02.754Z,37.23
2023-04-17T11:59:32.199Z,33.77
2023-04-17T12:02:01.923Z,34.83
2023-04-17T12:04:33.848Z,39.67
2023-04-17T12:07:03.126Z,37.13
2023-04-17T12:09:32.542Z,35.33
2023-04-17T12:12:05.013Z,34.10
2023-04-17T12:14:33.795Z,36.97
2023-04-17T12:17:02.428Z,36.63
2023-04-17T12:19:31.916Z,35.63
2023-04-17T12:22:00.879Z,33.70
2023-04-17T12:24:29.727Z,36.53
2023-04-17T12:26:58.787Z,35.57
2023-04-17T12:29:40.619Z,39.23
2023-04-17T12:32:12.307Z,37.27
2023-04-17T12:34:41.175Z,34.73
2023-04-17T12:37:10.104Z,38.50
2023-04-17T12:39:38.705Z,33.67
2023-04-17T12:42:07.049Z,36.77
2023-04-17T12:44:36.978Z,39.90
2023-04-17T12:47:05.652Z,38.27
2023-04-17T12:49:34.087Z,34.23
2023-04-17T12:52:03.900Z,36.23
2023-04-17T12:54:33.214Z,38.90
2023-04-17T12:57:02.962Z,35.50
2023-04-17T12:59:31.422Z,37.77
2023-04-17T13:02:01.145Z,34.00
2023-04-17T13:04:30.188Z,35.90
2023-04-17T13:06:59.188Z,37.70
2023-04-17T13:09:27.672Z,34.80
2023-04-17T13:11:57.621Z,35.10
2023-04-17T13:14:26.408Z,33.90
2023-04-17T13:16:55.407Z,35.50
2023-04-17T13:19:25.036Z,32.17
2023-04-17T13:21:53.598Z,35.13
2023-04-17T13:24:21.861Z,32.23
2023-04-17T13:26:50.655Z,33.50
2023-04-17T13:29:20.031Z,32.57
2023-04-17T13:31:49.619Z,32.90
2023-04-17T13:34:18.180Z,35.30
2023-04-17T13:36:48.437Z,35.00
2023-04-17T13:39:16.721Z,38.87
2023-04-17T13:41:45.920Z,36.47
2023-04-17T13:44:14.739Z,35.70
2023-04-17T13:46:44.176Z,34.07
2023-04-17T13:49:12.957Z,34.77
2023-04-17T13:51:41.978Z,33.77
2023-04-17T13:54:11.940Z,37.07
2023-04-17T13:56:40.690Z,36.60
2023-04-17T13:59:09.373Z,36.63
2023-04-17T14:01:38.105Z,37.37
2023-04-17T14:04:06.606Z,38.40
2023-04-17T14:06:35.929Z,37.57
2023-04-17T14:09:05.805Z,34.70
2023-04-17T14:11:35.718Z,39.17
2023-04-17T14:14:04.129Z,40.37
2023-04-17T14:16:32.584Z,38.10
2023-04-17T14:19:13.398Z,33.30
2023-04-17T14:21:43.020Z,35.63
2023-04-17T14:24:11.555Z,38.63
2023-04-17T14:26:42.149Z,36.27
2023-04-17T14:29:13.766Z,39.87
2023-04-17T14:31:42.630Z,39.13
2023-04-17T14:34:11.069Z,40.67
2023-04-17T14:36:39.818Z,39.73
2023-04-17T14:39:08.191Z,32.87
2023-04-17T14:41:36.789Z,41.57
2023-04-17T14:44:06.571Z,40.27
2023-04-17T14:46:35.755Z,36.20
2023-04-17T14:49:04.532Z,43.10
2023-04-17T14:51:33.005Z,42.60
2023-04-17T14:54:01.463Z,39.63
2023-04-17T14:56:30.037Z,33.73
2023-04-17T14:58:58.628Z,42.80
2023-04-17T15:01:28.661Z,40.90
2023-04-17T15:03:57.247Z,46.67
2023-04-17T15:06:26.195Z,42.57
2023-04-17T15:08:54.807Z,43.43
2023-04-17T15:11:23.293Z,42.17
2023-04-17T15:13:51.817Z,43.80
2023-04-17T15:16:20.355Z,36.83
2023-04-17T15:18:51.182Z,41.90
2023-04-17T15:21:20.139Z,40.57
2023-04-17T15:23:48.757Z,38.10
2023-04-17T15:26:17.564Z,40.20
2023-04-17T15:28:46.195Z,28.03
2023-04-17T15:31:14.880Z,36.33
2023-04-17T15:33:43.309Z,37.03
2023-04-17T15:36:12.988Z,34.50
2023-04-17T15:38:41.387Z,34.87
2023-04-17T15:41:10.730Z,34.73
2023-04-17T15:43:39.824Z,29.40
2023-04-17T15:46:08.605Z,33.10
2023-04-17T15:48:37.053Z,35.83
2023-04-17T15:51:05.892Z,36.93
2023-04-17T15:53:35.682Z,35.17
2023-04-17T15:56:04.472Z,30.00
2023-04-17T15:58:33.073Z,31.20
2023-04-17T16:01:01.396Z,37.57
2023-04-17T16:03:29.970Z,39.50
2023-04-17T16:05:58.806Z,37.30
2023-04-17T16:08:27.398Z,40.17
2023-04-17T16:10:57.048Z,36.77
2023-04-17T16:13:25.534Z,36.83
2023-04-17T16:15:54.038Z,35.90
2023-04-17T16:18:22.445Z,34.83
2023-04-17T16:20:51.008Z,34.50
2023-04-17T16:23:19.422Z,38.97
2023-04-17T16:25:50.127Z,38.73
2023-04-17T16:28:20.185Z,38.43
2023-04-17T16:30:49.192Z,38.37
2023-04-17T16:33:17.581Z,39.93
2023-04-17T16:35:46.017Z,40.10
2023-04-17T16:38:14.739Z,41.17
2023-04-17T16:40:43.247Z,41.73
2023-04-17T16:43:11.876Z,40.70
2023-04-17T16:45:42.002Z,39.13
2023-04-17T16:48:11.555Z,40.70
2023-04-17T16:50:39.966Z,44.13
2023-04-17T16:53:08.617Z,42.53
2023-04-17T16:55:37.841Z,43.27
2023-04-17T16:58:06.509Z,45.23
2023-04-17T17:00:35.030Z,44.60
2023-04-17T17:03:05.192Z,43.10
2023-04-17T17:05:33.676Z,47.30
2023-04-17T17:08:02.394Z,45.50
2023-04-17T17:10:30.838Z,43.50
2023-04-17T17:12:59.393Z,46.53
2023-04-17T17:15:27.894Z,45.20
2023-04-17T17:17:56.583Z,46.30
2023-04-17T17:20:26.253Z,46.47
2023-04-17T17:22:54.752Z,46.47
2023-04-17T17:25:24.172Z,45.90
2023-04-17T17:27:52.800Z,49.10
2023-04-17T17:30:21.293Z,48.13
2023-04-17T17:32:49.823Z,50.10
2023-04-17T17:35:18.230Z,48.97
2023-04-17T17:37:47.989Z,55.40
2023-04-17T17:40:16.421Z,53.67
2023-04-17T17:42:45.269Z,49.13
2023-04-17T17:45:13.692Z,47.83
2023-04-17T17:47:42.145Z,46.63
2023-04-17T17:50:10.893Z,44.30
2023-04-17T17:52:39.314Z,44.93
2023-04-17T17:55:09.916Z,49.07
2023-04-17T17:57:48.377Z,43.90
2023-04-17T18:00:18.699Z,48.10
2023-04-17T18:02:47.489Z,45.93
2023-04-17T18:05:16.034Z,48.23
2023-04-17T18:07:44.459Z,49.27
2023-04-17T18:10:14.348Z,46.43
2023-04-17T18:12:42.743Z,41.63
2023-04-17T18:15:12.096Z,45.87
2023-04-17T18:17:40.571Z,45.20
2023-04-17T18:20:10.368Z,45.63
2023-04-17T18:22:39.079Z,43.37
2023-04-17T18:25:08.156Z,44.70
2023-04-17T18:27:37.993Z,44.17
2023-04-17T18:30:07.138Z,34.87
2023-04-17T18:32:36.096Z,44.63
2023-04-17T18:35:04.761Z,42.63
2023-04-17T18:37:33.483Z,45.03
2023-04-17T18:40:02.274Z,46.53
2023-04-17T18:42:30.728Z,44.63
2023-04-17T18:45:01.032Z,46.57
2023-04-17T18:47:29.770Z,46.13
2023-04-17T18:49:58.415Z,45.77
2023-04-17T18:52:26.816Z,47.40
2023-04-17T18:54:55.178Z,46.60
2023-04-17T18:57:23.798Z,46.80
2023-04-17T18:59:52.204Z,46.67
2023-04-17T19:02:22.114Z,48.83
2023-04-17T19:04:50.692Z,45.27
2023-04-17T19:07:19.321Z,46.37
2023-04-17T19:09:47.827Z,45.80
2023-04-17T19:12:16.635Z,50.63
2023-04-17T19:14:45.076Z,46.93
2023-04-17T19:17:13.780Z,48.60
2023-04-17T19:19:43.484Z,45.83
2023-04-17T19:22:12.764Z,49.80
2023-04-17T19:24:42.097Z,50.67
2023-04-17T19:27:10.733Z,50.63
2023-04-17T19:29:39.191Z,48.90
2023-04-17T19:32:07.770Z,43.03
2023-04-17T19:34:36.318Z,47.13
2023-04-17T19:37:06.590Z,51.63
2023-04-17T19:39:35.368Z,49.03
2023-04-17T19:42:04.228Z,49.97
2023-04-17T19:44:32.696Z,50.03
2023-04-17T19:47:01.272Z,49.83
2023-04-17T19:49:29.683Z,42.33
2023-04-17T19:51:59.232Z,48.63
2023-04-17T19:54:29.129Z,50.13
2023-04-17T19:56:57.800Z,48.87
2023-04-17T19:59:26.229Z,53.93
2023-04-17T20:01:54.703Z,53.30
2023-04-17T20:04:23.528Z,51.40
2023-04-17T20:06:52.022Z,47.07
2023-04-17T20:09:20.714Z,46.37
2023-04-17T20:11:50.580Z,46.80
2023-04-17T20:14:19.650Z,51.10
2023-04-17T20:16:50.077Z,51.07
2023-04-17T20:19:18.742Z,51.27
2023-04-17T20:21:47.811Z,50.43
2023-04-17T20:24:16.907Z,49.20
2023-04-17T20:26:45.656Z,51.03
2023-04-17T20:29:15.752Z,51.50
2023-04-17T20:31:44.470Z,42.00
2023-04-17T20:34:13.297Z,49.33
2023-04-17T20:36:42.063Z,47.93
2023-04-17T20:39:11.325Z,49.10
2023-04-17T20:41:39.934Z,50.10
2023-04-17T20:44:09.544Z,48.00
2023-04-17T20:46:39.663Z,47.10
2023-04-17T20:49:08.166Z,50.00
2023-04-17T20:51:36.610Z,48.20
2023-04-17T20:54:05.084Z,52.30
2023-04-17T20:56:33.560Z,47.43
2023-04-17T20:59:01.994Z,53.23
2023-04-17T21:01:30.689Z,41.57
2023-04-17T21:04:00.569Z,50.57
2023-04-17T21:06:29.236Z,49.80
2023-04-17T21:08:58.064Z,42.97
2023-04-17T21:11:26.441Z,45.60
2023-04-17T21:13:55.076Z,47.40
2023-04-17T21:16:23.918Z,43.63
2023-04-17T21:18:52.327Z,56.50
2023-04-17T21:21:21.955Z,50.63
2023-04-17T21:23:50.428Z,50.57
2023-04-17T21:26:19.836Z,50.97
2023-04-17T21:28:48.332Z,52.23
2023-04-17T21:31:16.908Z,51.73
2023-04-17T21:33:45.392Z,47.17
2023-04-17T21:36:14.628Z,50.47
2023-04-17T21:38:44.414Z,49.13
2023-04-17T21:41:13.091Z,50.40
2023-04-17T21:43:41.517Z,54.07
2023-04-17T21:46:11.524Z,51.50
2023-04-17T21:48:40.442Z,56.13
2023-04-17T21:51:08.989Z,53.97
2023-04-17T21:53:38.190Z,49.60
2023-04-17T21:56:09.545Z,53.20
2023-04-17T21:58:38.035Z,49.20
2023-04-17T22:01:06.655Z,50.03
2023-04-17T22:03:35.559Z,49.03
2023-04-17T22:06:04.250Z,47.47
2023-04-17T22:08:32.824Z,47.70
2023-04-17T22:11:01.361Z,46.47
2023-04-17T22:13:31.944Z,52.37
2023-04-17T22:16:00.330Z,50.17
2023-04-17T22:18:29.030Z,48.07
2023-04-17T22:20:57.437Z,52.63
2023-04-17T22:23:26.016Z,50.97
2023-04-17T22:25:54.586Z,52.63
2023-04-17T22:28:22.919Z,48.73
2023-04-17T22:30:53.063Z,49.63
2023-04-17T22:33:21.706Z,51.60
2023-04-17T22:35:50.391Z,48.97
2023-04-17T22:38:19.862Z,51.73
2023-04-17T22:40:48.552Z,44.10
2023-04-17T22:43:17.010Z,48.20
2023-04-17T22:45:45.613Z,48.80
2023-04-17T22:48:15.516Z,48.93
2023-04-17T22:50:45.598Z,48.07
2023-04-17T22:53:14.083Z,50.33
2023-04-17T22:55:42.531Z,47.63
2023-04-17T22:58:10.816Z,49.40
2023-04-17T23:00:39.180Z,48.00
2023-04-17T23:03:07.756Z,47.07
2023-04-17T23:05:37.562Z,49.40
2023-04-17T23:08:06.237Z,48.63
2023-04-17T23:10:34.513Z,50.60
2023-04-17T23:13:02.914Z,47.70
2023-04-17T23:15:31.307Z,51.33
2023-04-17T23:18:00.141Z,51.10
2023-04-17T23:20:28.715Z,51.67
2023-04-17T23:22:58.477Z,52.00
2023-04-17T23:25:26.915Z,53.10
2023-04-17T23:27:56.063Z,53.07
2023-04-17T23:30:24.572Z,53.87
2023-04-17T23:32:53.746Z,54.13
2023-04-17T23:35:22.695Z,51.70
2023-04-17T23:37:51.672Z,53.80
2023-04-17T23:40:21.235Z,53.23
2023-04-17T23:42:49.916Z,53.60
2023-04-17T23:45:18.499Z,47.40
2023-04-17T23:47:47.227Z,52.97
2023-04-17T23:50:15.938Z,51.73
2023-04-17T23:52:44.385Z,52.50
2023-04-17T23:55:12.793Z,55.27
2023-04-17T23:57:42.752Z,54.53
